SBCR/CMG METAR and TAF weather

Enter ICAO airport designator
Station Type Date Time Source
SBCR METAR 2019/02/23 23:00 UTC NOAA

SBCR 232300Z 07007KT CAVOK 30/24 Q1007


Station Type Date Time Source
SBCR Decoded METAR 2019/02/23 23:00 UTC NOAA

Corumba, Brazil (SBCR) 19-05S 057-30W
Feb 23, 2019 - 06:00 PM EST / 2019.02.23 2300 UTC
Wind: from the ENE (070 degrees) at 8 MPH (7 KT):0
Visibility: greater than 7 mile(s):0
Temperature: 86 F (30 C)
Heat index: 95.0 F (35.0 C):1
Dew Point: 75 F (24 C)
Relative Humidity: 70%
Pressure (altimeter): 29.74 in. Hg (1007 hPa)
ob: SBCR 232300Z 07007KT CAVOK 30/24 Q1007
cycle: 23

Station Type Date Time Source
SBCR TAF 2019/02/23 18:21 UTC NOAA

TAF TAF SBCR 231530Z 2318/2418 04006KT 9999 SCT035 TN24/2408Z TX35/2418Z
BECMG 2322/2324 FEW030
RMK PDW


Example: see airport list